createdAt,value
2022-08-05T00:00:19.238Z,3.28
2022-08-05T00:02:51.611Z,3.10
2022-08-05T00:06:02.699Z,3.20
2022-08-05T00:08:32.805Z,2.72
2022-08-05T00:11:01.478Z,3.38
2022-08-05T00:13:39.125Z,2.78
2022-08-05T00:16:09.479Z,3.15
2022-08-05T00:18:41.048Z,3.28
2022-08-05T00:21:09.570Z,3.15
2022-08-05T00:23:46.364Z,2.90
2022-08-05T00:26:22.567Z,2.80
2022-08-05T00:28:50.464Z,2.90
2022-08-05T00:31:53.962Z,3.00
2022-08-05T00:34:55.195Z,3.53
2022-08-05T00:37:12.816Z,3.15
2022-08-05T00:39:43.942Z,3.10
2022-08-05T00:42:11.464Z,3.25
2022-08-05T00:44:58.334Z,2.67
2022-08-05T00:47:26.150Z,2.65
2022-08-05T00:50:12.865Z,2.90
2022-08-05T00:52:45.448Z,3.20
2022-08-05T00:55:13.956Z,3.53
2022-08-05T00:57:55.358Z,3.22
2022-08-05T01:00:26.013Z,3.55
2022-08-05T01:02:53.032Z,2.83
2022-08-05T01:05:20.088Z,3.53
2022-08-05T01:08:29.828Z,3.45
2022-08-05T01:10:51.828Z,3.00
2022-08-05T01:13:58.335Z,3.17
2022-08-05T01:16:38.633Z,2.95
2022-08-05T01:19:30.123Z,3.28
2022-08-05T01:22:23.889Z,3.28
2022-08-05T01:24:50.980Z,3.47
2022-08-05T01:27:55.895Z,2.97
2022-08-05T01:30:34.654Z,2.85
2022-08-05T01:33:08.362Z,3.03
2022-08-05T01:35:51.621Z,2.90
2022-08-05T01:38:26.957Z,3.83
2022-08-05T01:40:58.710Z,2.90
2022-08-05T01:43:31.724Z,3.20
2022-08-05T01:46:07.330Z,3.10
2022-08-05T01:48:49.535Z,3.08
2022-08-05T01:51:18.746Z,2.90
2022-08-05T01:53:57.362Z,3.90
2022-08-05T01:58:09.946Z,3.38
2022-08-05T01:59:23.536Z,3.13
2022-08-05T02:01:52.137Z,3.22
2022-08-05T02:04:23.703Z,3.47
2022-08-05T02:06:52.953Z,3.05
2022-08-05T02:09:20.541Z,3.88
2022-08-05T02:11:52.289Z,3.50
2022-08-05T02:14:32.990Z,3.63
2022-08-05T02:17:29.782Z,3.78
2022-08-05T02:20:05.817Z,3.67
2022-08-05T02:22:45.098Z,3.78
2022-08-05T02:25:22.143Z,3.55
2022-08-05T02:27:58.364Z,3.70
2022-08-05T02:30:32.438Z,3.85
2022-08-05T02:33:03.702Z,3.58
2022-08-05T02:35:37.654Z,3.55
2022-08-05T02:38:12.447Z,3.60
2022-08-05T02:40:46.810Z,3.10
2022-08-05T02:43:16.624Z,2.80
2022-08-05T02:45:52.294Z,3.25
2022-08-05T02:48:29.112Z,3.53
2022-08-05T02:51:01.995Z,3.13
2022-08-05T02:53:39.260Z,2.75
2022-08-05T02:56:16.006Z,3.13
2022-08-05T02:58:51.590Z,3.03
2022-08-05T03:01:31.274Z,3.00
2022-08-05T03:04:14.410Z,3.22
2022-08-05T03:06:55.504Z,3.50
2022-08-05T03:09:36.045Z,3.17
2022-08-05T03:12:06.526Z,3.85
2022-08-05T03:14:35.076Z,3.80
2022-08-05T03:17:12.596Z,4.03
2022-08-05T03:19:39.295Z,3.50
2022-08-05T03:22:16.325Z,3.55
2022-08-05T03:24:47.108Z,4.00
2022-08-05T03:27:17.969Z,4.03
2022-08-05T03:30:08.403Z,4.47
2022-08-05T03:32:34.051Z,3.88
2022-08-05T03:35:02.059Z,4.30
2022-08-05T03:37:31.457Z,4.57
2022-08-05T03:40:14.367Z,4.00
2022-08-05T03:42:52.102Z,4.25
2022-08-05T03:45:23.513Z,3.72
2022-08-05T03:47:51.613Z,4.50
2022-08-05T03:50:18.688Z,4.60
2022-08-05T03:55:49.760Z,4.57
2022-08-05T03:56:09.836Z,4.70
2022-08-05T03:58:42.817Z,4.75
2022-08-05T04:01:13.074Z,4.10
2022-08-05T04:03:42.343Z,4.13
2022-08-05T04:06:33.794Z,4.47
2022-08-05T04:09:02.568Z,4.95
2022-08-05T04:11:50.869Z,4.97
2022-08-05T04:14:19.613Z,4.65
2022-08-05T04:16:58.693Z,4.88
2022-08-05T04:19:30.348Z,4.65
2022-08-05T04:22:08.788Z,4.20
2022-08-05T04:24:52.583Z,5.28
2022-08-05T04:27:19.824Z,5.13
2022-08-05T04:30:08.559Z,5.80
2022-08-05T04:32:38.011Z,5.82
2022-08-05T04:35:06.671Z,5.20
2022-08-05T04:38:02.158Z,5.00
2022-08-05T04:40:36.463Z,5.83
2022-08-05T04:43:06.285Z,5.90
2022-08-05T04:45:48.145Z,5.38
2022-08-05T04:48:27.831Z,5.45
2022-08-05T04:51:02.484Z,5.90
2022-08-05T04:53:33.552Z,4.95
2022-08-05T04:56:33.098Z,5.75
2022-08-05T04:58:49.748Z,4.78
2022-08-05T05:01:33.715Z,4.93
2022-08-05T05:04:06.028Z,5.53
2022-08-05T05:06:39.449Z,6.90
2022-08-05T05:09:14.164Z,8.05
2022-08-05T05:11:53.269Z,5.22
2022-08-05T05:14:28.106Z,5.50
2022-08-05T05:17:00.249Z,4.95
2022-08-05T05:19:36.257Z,5.70
2022-08-05T05:22:24.169Z,5.30
2022-08-05T05:24:57.451Z,6.35
2022-08-05T05:27:44.946Z,5.85
2022-08-05T05:30:29.866Z,6.00
2022-08-05T05:33:00.986Z,5.88
2022-08-05T05:35:38.053Z,5.60
2022-08-05T05:38:13.250Z,5.63
2022-08-05T05:40:49.687Z,5.05
2022-08-05T05:43:27.544Z,6.47
2022-08-05T05:46:15.764Z,6.00
2022-08-05T05:48:44.058Z,6.22
2022-08-05T05:51:15.587Z,5.25
2022-08-05T05:53:54.214Z,6.90
2022-08-05T05:56:32.217Z,7.53
2022-08-05T05:59:08.035Z,6.22
2022-08-05T06:01:38.965Z,5.95
2022-08-05T06:04:08.125Z,5.57
2022-08-05T06:06:36.058Z,5.47
2022-08-05T06:09:05.330Z,5.65
2022-08-05T06:11:33.048Z,5.30
2022-08-05T06:14:00.831Z,5.75
2022-08-05T06:16:36.716Z,6.75
2022-08-05T06:19:05.793Z,7.90
2022-08-05T06:21:36.844Z,8.90
2022-08-05T06:24:12.353Z,9.27
2022-08-05T06:26:51.478Z,8.30
2022-08-05T06:29:43.193Z,10.88
2022-08-05T06:32:25.360Z,11.30
2022-08-05T06:34:58.295Z,12.88
2022-08-05T06:37:58.326Z,13.85
2022-08-05T06:40:18.449Z,14.23
2022-08-05T06:42:51.863Z,15.20
2022-08-05T06:45:44.753Z,16.13
2022-08-05T06:48:37.016Z,16.52
2022-08-05T06:50:56.425Z,16.77
2022-08-05T06:53:28.590Z,14.65
2022-08-05T06:56:00.416Z,19.48
2022-08-05T06:58:35.408Z,17.45
2022-08-05T07:01:07.714Z,15.27
2022-08-05T07:03:35.132Z,13.18
2022-08-05T07:06:10.380Z,13.68
2022-08-05T07:11:22.427Z,11.45
2022-08-05T07:14:20.260Z,10.77
2022-08-05T07:17:58.904Z,11.77
2022-08-05T07:20:23.080Z,13.98
2022-08-05T07:22:28.631Z,15.73
2022-08-05T07:25:22.022Z,13.88
2022-08-05T07:27:57.970Z,13.30
2022-08-05T07:30:38.525Z,13.68
2022-08-05T07:33:16.621Z,15.23
2022-08-05T07:36:03.567Z,16.15
2022-08-05T07:38:42.851Z,12.63
2022-08-05T07:42:07.063Z,14.38
2022-08-05T07:44:06.512Z,14.18
2022-08-05T07:46:41.456Z,14.73
2022-08-05T07:49:15.176Z,17.17
2022-08-05T07:51:53.154Z,14.88
2022-08-05T07:54:30.806Z,18.35
2022-08-05T07:57:16.730Z,18.42
2022-08-05T07:59:53.712Z,18.75
2022-08-05T08:02:30.887Z,18.10
2022-08-05T08:04:59.049Z,17.60
2022-08-05T08:07:28.511Z,19.20
2022-08-05T08:09:55.667Z,17.80
2022-08-05T08:12:33.541Z,16.95
2022-08-05T08:15:05.182Z,16.50
2022-08-05T08:17:46.332Z,16.02
2022-08-05T08:20:43.336Z,14.15
2022-08-05T08:23:11.631Z,13.63
2022-08-05T08:26:00.673Z,12.95
2022-08-05T08:28:36.427Z,12.95
2022-08-05T08:31:09.792Z,14.52
2022-08-05T08:33:41.788Z,12.27
2022-08-05T08:36:29.690Z,12.93
2022-08-05T08:38:59.473Z,14.93
2022-08-05T08:41:51.225Z,14.82
2022-08-05T08:45:20.398Z,13.35
2022-08-05T08:47:21.629Z,13.67
2022-08-05T08:50:22.855Z,17.65
2022-08-05T08:52:52.993Z,16.60
2022-08-05T08:56:02.018Z,17.13
2022-08-05T08:58:15.107Z,16.30
2022-08-05T09:00:47.301Z,17.90
2022-08-05T09:03:19.274Z,18.15
2022-08-05T09:06:08.675Z,19.23
2022-08-05T09:08:40.415Z,18.70
2022-08-05T09:11:13.865Z,17.40
2022-08-05T09:14:00.671Z,17.95
2022-08-05T09:16:30.620Z,17.20
2022-08-05T09:18:59.424Z,17.30
2022-08-05T09:22:17.840Z,18.73
2022-08-05T09:24:15.665Z,17.25
2022-08-05T09:26:47.491Z,17.42
2022-08-05T09:29:19.085Z,17.92
2022-08-05T09:32:42.125Z,18.83
2022-08-05T09:34:55.765Z,19.20
2022-08-05T09:38:12.892Z,20.88
2022-08-05T09:40:37.946Z,22.33
2022-08-05T09:43:10.269Z,22.58
2022-08-05T09:46:06.356Z,21.52
2022-08-05T09:48:36.983Z,25.13
2022-08-05T09:51:14.839Z,25.63
2022-08-05T09:53:54.805Z,23.60
2022-08-05T09:56:38.337Z,24.00
2022-08-05T09:59:17.221Z,23.83
2022-08-05T10:01:46.543Z,23.27
2022-08-05T10:04:16.052Z,25.45
2022-08-05T10:06:59.501Z,23.77
2022-08-05T10:09:30.065Z,26.73
2022-08-05T10:12:30.105Z,24.95
2022-08-05T10:15:20.616Z,24.92
2022-08-05T10:18:22.245Z,25.70
2022-08-05T10:20:57.953Z,25.67
2022-08-05T10:23:59.235Z,26.70
2022-08-05T10:26:24.267Z,30.05
2022-08-05T10:29:00.986Z,32.97
2022-08-05T10:32:51.964Z,30.65
2022-08-05T10:34:15.143Z,28.90
2022-08-05T10:36:44.292Z,29.75
2022-08-05T10:40:03.517Z,26.90
2022-08-05T10:42:22.723Z,25.25
2022-08-05T10:44:59.800Z,23.90
2022-08-05T10:47:36.466Z,20.88
2022-08-05T10:50:31.555Z,20.88
2022-08-05T10:53:01.008Z,18.83
2022-08-05T10:55:32.915Z,18.80
2022-08-05T10:58:20.550Z,16.90
2022-08-05T11:00:55.056Z,17.65
2022-08-05T11:03:27.427Z,16.48
2022-08-05T11:06:16.094Z,16.23
2022-08-05T11:09:32.179Z,15.98
2022-08-05T11:12:37.272Z,11.63
2022-08-05T11:15:20.668Z,9.77
2022-08-05T11:18:05.899Z,8.63
2022-08-05T11:20:38.934Z,5.88
2022-08-05T11:24:04.240Z,4.63
2022-08-05T11:26:40.970Z,3.40
2022-08-05T11:29:40.990Z,4.65
2022-08-05T11:32:28.156Z,3.90
2022-08-05T11:34:56.264Z,4.00
2022-08-05T11:38:28.947Z,3.83
2022-08-05T11:40:50.653Z,4.25
2022-08-05T11:44:00.786Z,4.07
2022-08-05T11:46:30.643Z,3.55
2022-08-05T11:49:00.937Z,4.68
2022-08-05T11:51:43.685Z,3.75
2022-08-05T11:54:33.508Z,3.28
2022-08-05T11:57:08.807Z,3.90
2022-08-05T11:59:52.164Z,3.80
2022-08-05T12:02:30.057Z,3.38
2022-08-05T12:05:06.793Z,3.38
2022-08-05T12:08:03.703Z,3.10
2022-08-05T12:10:45.004Z,3.33
2022-08-05T12:16:14.435Z,3.33
2022-08-05T12:18:52.317Z,2.90
2022-08-05T12:21:33.211Z,2.58
2022-08-05T12:24:10.768Z,2.88
2022-08-05T12:26:44.120Z,2.80
2022-08-05T12:29:39.100Z,2.80
2022-08-05T12:32:09.727Z,3.08
2022-08-05T12:34:40.242Z,2.83
2022-08-05T12:37:30.136Z,2.58
2022-08-05T12:40:03.465Z,2.92
2022-08-05T12:42:40.864Z,2.90
2022-08-05T12:45:09.918Z,2.70
2022-08-05T12:48:01.023Z,3.63
2022-08-05T12:50:30.848Z,3.63
2022-08-05T12:52:59.934Z,3.58
2022-08-05T12:55:32.945Z,3.85
2022-08-05T12:58:39.045Z,3.08
2022-08-05T13:03:42.070Z,3.25
2022-08-05T13:06:15.859Z,2.80
2022-08-05T13:08:51.821Z,2.63
2022-08-05T13:11:25.417Z,2.67
2022-08-05T13:14:38.872Z,2.40
2022-08-05T13:17:20.574Z,3.67
2022-08-05T13:20:04.282Z,2.90
2022-08-05T13:22:32.818Z,2.83
2022-08-05T13:25:05.095Z,3.23
2022-08-05T13:27:37.773Z,2.72
2022-08-05T13:30:35.996Z,2.38
2022-08-05T13:32:57.527Z,2.40
2022-08-05T13:35:43.365Z,2.30
2022-08-05T13:38:30.234Z,2.63
2022-08-05T13:40:59.891Z,2.40
2022-08-05T13:43:45.924Z,2.35
2022-08-05T13:46:30.628Z,2.50
2022-08-05T13:49:10.061Z,2.80
2022-08-05T13:51:46.026Z,2.70
2022-08-05T13:54:15.526Z,2.90
2022-08-05T13:56:44.937Z,2.17
2022-08-05T13:59:20.080Z,2.25
2022-08-05T14:01:57.737Z,2.22
2022-08-05T14:04:51.166Z,2.42
2022-08-05T14:08:01.101Z,2.47
2022-08-05T14:10:28.853Z,2.10
2022-08-05T14:12:58.678Z,2.15
2022-08-05T14:16:06.816Z,2.37
2022-08-05T14:20:48.934Z,2.58
2022-08-05T14:23:25.649Z,2.45
2022-08-05T14:25:59.661Z,2.78
2022-08-05T14:28:30.741Z,2.70
2022-08-05T14:31:03.102Z,2.95
2022-08-05T14:33:56.507Z,3.10
2022-08-05T14:36:20.620Z,3.20
2022-08-05T14:38:48.873Z,2.58
2022-08-05T14:41:18.826Z,3.15
2022-08-05T14:44:02.134Z,3.08
2022-08-05T14:46:37.577Z,2.80
2022-08-05T14:49:07.529Z,3.15
2022-08-05T14:51:42.587Z,3.45
2022-08-05T14:54:27.638Z,4.00
2022-08-05T14:56:57.477Z,2.65
2022-08-05T14:59:24.603Z,3.33
2022-08-05T15:01:54.155Z,3.22
2022-08-05T15:06:56.315Z,3.35
2022-08-05T15:09:51.890Z,3.58
2022-08-05T15:12:11.694Z,3.03
2022-08-05T15:14:50.445Z,3.47
2022-08-05T15:17:46.021Z,3.25
2022-08-05T15:20:08.842Z,3.13
2022-08-05T15:22:41.399Z,3.50
2022-08-05T15:25:14.400Z,3.90
2022-08-05T15:27:51.995Z,3.05
2022-08-05T15:30:19.483Z,3.28
2022-08-05T15:32:46.615Z,3.47
2022-08-05T15:35:13.591Z,4.22
2022-08-05T15:38:31.749Z,3.45
2022-08-05T15:43:21.516Z,3.20
2022-08-05T15:46:00.169Z,2.97
2022-08-05T15:48:28.309Z,2.80
2022-08-05T15:50:58.203Z,2.85
2022-08-05T15:53:38.055Z,2.70
2022-08-05T15:56:16.767Z,2.80
2022-08-05T15:58:44.648Z,3.00
2022-08-05T16:01:16.372Z,2.30
2022-08-05T16:03:48.540Z,2.60
2022-08-05T16:06:20.299Z,2.22
2022-08-05T16:08:48.186Z,1.88
2022-08-05T16:11:17.732Z,2.22
2022-08-05T16:13:45.534Z,2.05
2022-08-05T16:16:12.259Z,1.88
2022-08-05T16:18:52.314Z,2.13
2022-08-05T16:21:20.745Z,1.85
2022-08-05T16:24:07.681Z,2.17
2022-08-05T16:26:55.891Z,2.00
2022-08-05T16:29:28.812Z,2.30
2022-08-05T16:31:58.109Z,2.42
2022-08-05T16:34:26.254Z,1.90
2022-08-05T16:36:56.422Z,2.10
2022-08-05T16:40:04.841Z,2.00
2022-08-05T16:42:18.523Z,2.20
2022-08-05T16:44:57.138Z,1.50
2022-08-05T16:47:35.778Z,1.90
2022-08-05T16:50:10.183Z,2.10
2022-08-05T16:52:37.357Z,1.92
2022-08-05T16:55:04.819Z,2.03
2022-08-05T16:57:53.087Z,1.85
2022-08-05T17:00:33.887Z,2.13
2022-08-05T17:03:02.863Z,2.47
2022-08-05T17:05:30.706Z,2.08
2022-08-05T17:07:58.002Z,2.22
2022-08-05T17:10:26.543Z,2.10
2022-08-05T17:12:57.875Z,2.45
2022-08-05T17:15:24.936Z,2.35
2022-08-05T17:18:14.293Z,1.88
2022-08-05T17:20:42.222Z,2.20
2022-08-05T17:23:10.974Z,2.00
2022-08-05T17:26:00.060Z,2.42
2022-08-05T17:28:29.137Z,2.05
2022-08-05T17:30:58.985Z,1.95
2022-08-05T17:33:39.053Z,1.97
2022-08-05T17:36:32.791Z,2.17
2022-08-05T17:39:02.410Z,2.03
2022-08-05T17:42:28.386Z,1.85
2022-08-05T17:44:18.576Z,2.00
2022-08-05T17:46:59.188Z,1.70
2022-08-05T17:49:28.390Z,1.30
2022-08-05T17:52:15.569Z,1.88
2022-08-05T17:54:44.756Z,1.65
2022-08-05T17:57:12.012Z,1.52
2022-08-05T17:59:43.790Z,1.38
2022-08-05T18:02:11.365Z,1.20
2022-08-05T18:04:51.315Z,1.73
2022-08-05T18:07:21.724Z,1.50
2022-08-05T18:09:59.554Z,1.42
2022-08-05T18:12:27.677Z,1.55
2022-08-05T18:14:55.279Z,1.30
2022-08-05T18:18:01.458Z,1.52
2022-08-05T18:20:13.840Z,1.42
2022-08-05T18:22:53.737Z,1.73
2022-08-05T18:25:22.142Z,1.60
2022-08-05T18:27:52.227Z,1.60
2022-08-05T18:30:19.793Z,1.58
2022-08-05T18:32:53.459Z,1.10
2022-08-05T18:35:20.994Z,1.10
2022-08-05T18:38:09.210Z,1.38
2022-08-05T18:41:56.550Z,1.20
2022-08-05T18:43:25.977Z,0.98
2022-08-05T18:45:58.693Z,1.05
2022-08-05T18:48:33.344Z,1.20
2022-08-05T18:52:04.928Z,1.42
2022-08-05T18:54:06.595Z,1.20
2022-08-05T18:56:36.158Z,1.10
2022-08-05T18:59:05.096Z,0.75
2022-08-05T19:01:57.291Z,0.80
2022-08-05T19:04:27.379Z,0.88
2022-08-05T19:06:54.140Z,1.17
2022-08-05T19:09:21.508Z,0.90
2022-08-05T19:12:00.628Z,1.15
2022-08-05T19:14:53.288Z,1.35
2022-08-05T19:17:19.332Z,0.90
2022-08-05T19:19:46.827Z,1.10
2022-08-05T19:22:17.138Z,1.17
2022-08-05T19:24:55.919Z,1.30
2022-08-05T19:27:23.407Z,1.25
2022-08-05T19:29:51.765Z,1.17
2022-08-05T19:32:18.773Z,1.00
2022-08-05T19:34:55.104Z,1.13
2022-08-05T19:37:29.818Z,0.93
2022-08-05T19:40:10.990Z,1.00
2022-08-05T19:42:40.214Z,0.90
2022-08-05T19:45:08.184Z,1.25
2022-08-05T19:47:43.488Z,0.80
2022-08-05T19:50:13.178Z,0.88
2022-08-05T19:52:40.037Z,0.70
2022-08-05T19:56:11.812Z,0.98
2022-08-05T19:58:07.069Z,0.98
2022-08-05T20:00:43.302Z,0.93
2022-08-05T20:03:11.069Z,0.98
2022-08-05T20:05:50.254Z,1.02
2022-08-05T20:08:18.924Z,1.23
2022-08-05T20:10:49.753Z,1.00
2022-08-05T20:13:29.867Z,1.13
2022-08-05T20:15:57.752Z,1.15
2022-08-05T20:18:34.071Z,1.50
2022-08-05T20:21:05.150Z,1.35
2022-08-05T20:23:40.122Z,1.20
2022-08-05T20:26:19.776Z,1.05
2022-08-05T20:28:52.707Z,0.90
2022-08-05T20:31:21.878Z,1.48
2022-08-05T20:33:55.188Z,1.50
2022-08-05T20:36:25.963Z,1.48
2022-08-05T20:38:57.943Z,1.08
2022-08-05T20:41:27.330Z,0.95
2022-08-05T20:44:17.081Z,1.35
2022-08-05T20:46:49.066Z,1.20
2022-08-05T20:49:24.231Z,1.05
2022-08-05T20:51:55.987Z,1.02
2022-08-05T20:54:55.338Z,1.13
2022-08-05T20:57:42.313Z,1.08
2022-08-05T21:00:34.846Z,1.00
2022-08-05T21:03:01.326Z,1.00
2022-08-05T21:05:48.413Z,1.23
2022-08-05T21:08:19.440Z,0.90
2022-08-05T21:10:48.617Z,1.08
2022-08-05T21:13:26.606Z,0.98
2022-08-05T21:16:03.583Z,0.90
2022-08-05T21:18:30.943Z,1.20
2022-08-05T21:20:58.170Z,0.98
2022-08-05T21:23:25.348Z,1.40
2022-08-05T21:25:55.370Z,1.00
2022-08-05T21:28:23.607Z,1.33
2022-08-05T21:30:51.299Z,1.10
2022-08-05T21:33:22.250Z,1.05
2022-08-05T21:35:58.192Z,1.30
2022-08-05T21:38:28.440Z,1.30
2022-08-05T21:40:55.856Z,1.38
2022-08-05T21:43:24.515Z,0.95
2022-08-05T21:45:57.826Z,1.20
2022-08-05T21:48:27.585Z,1.23
2022-08-05T21:50:54.708Z,1.20
2022-08-05T21:53:21.939Z,1.35
2022-08-05T21:56:04.648Z,1.15
2022-08-05T21:58:42.077Z,1.33
2022-08-05T22:01:10.720Z,1.20
2022-08-05T22:03:48.652Z,1.35
2022-08-05T22:06:35.274Z,1.30
2022-08-05T22:09:15.122Z,1.23
2022-08-05T22:11:47.640Z,1.30
2022-08-05T22:14:33.979Z,1.25
2022-08-05T22:17:06.722Z,1.02
2022-08-05T22:20:01.348Z,1.55
2022-08-05T22:22:27.686Z,1.30
2022-08-05T22:25:20.986Z,1.20
2022-08-05T22:28:11.113Z,1.10
2022-08-05T22:30:44.329Z,1.42
2022-08-05T22:33:57.348Z,1.20
2022-08-05T22:36:17.895Z,0.70
2022-08-05T22:38:48.715Z,1.30
2022-08-05T22:42:04.266Z,1.52
2022-08-05T22:44:09.307Z,1.13
2022-08-05T22:46:40.073Z,1.60
2022-08-05T22:49:46.147Z,1.73
2022-08-05T22:52:05.945Z,1.30
2022-08-05T22:54:36.545Z,1.33
2022-08-05T22:57:06.799Z,1.30
2022-08-05T22:59:44.176Z,1.38
2022-08-05T23:02:29.209Z,1.08
2022-08-05T23:04:58.280Z,0.90
2022-08-05T23:07:29.271Z,1.20
2022-08-05T23:10:01.719Z,1.42
2022-08-05T23:12:32.412Z,1.30
2022-08-05T23:15:03.940Z,1.05
2022-08-05T23:18:00.585Z,1.00
2022-08-05T23:20:25.780Z,1.00
2022-08-05T23:22:55.884Z,1.00
2022-08-05T23:25:51.089Z,1.00
2022-08-05T23:28:10.926Z,0.70
2022-08-05T23:30:43.545Z,1.17
2022-08-05T23:33:26.192Z,1.00
2022-08-05T23:36:05.713Z,1.35
2022-08-05T23:38:36.890Z,1.13
2022-08-05T23:41:05.793Z,0.90
2022-08-05T23:44:02.940Z,1.10
2022-08-05T23:46:23.219Z,1.55
2022-08-05T23:49:00.035Z,1.15
2022-08-05T23:51:53.764Z,1.38
2022-08-05T23:54:30.299Z,1.25
2022-08-05T23:57:03.930Z,1.20
